Time;durP1;ratioP1;P1;durP2;ratioP2;P2;SDS_P1;SDS_P2;PMS_P1;PMS_P2;Temp;Humidity;BMP_temperature;BMP_pressure;BME280_temperature;BME280_humidity;BME280_pressure;Samples;Min_cycle;Max_cycle;Signal;HPM_P1;HPM_P2
2023/04/06 00:01:01;;;;;;;5.28;3.67;;;0.10;99.90;;;;;;5057060;28;20071;-59
2023/04/06 00:03:27;;;;;;;5.88;3.75;;;0.00;99.90;;;;;;5057537;28;20029;-59
2023/04/06 00:05:53;;;;;;;6.00;3.60;;;0.00;99.90;;;;;;5073560;22;20055;-48
2023/04/06 00:08:18;;;;;;;4.13;3.45;;;0.00;99.90;;;;;;5050876;28;20545;-46
2023/04/06 00:10:44;;;;;;;4.88;3.60;;;-0.10;99.90;;;;;;5054331;28;20041;-48
2023/04/06 00:13:10;;;;;;;3.30;3.00;;;-0.10;99.90;;;;;;5062457;28;20048;-49
2023/04/06 00:15:36;;;;;;;3.97;3.55;;;-0.10;99.90;;;;;;5021167;28;20065;-46
2023/04/06 00:18:02;;;;;;;5.20;3.65;;;-0.10;99.90;;;;;;5038704;28;20492;-49
2023/04/06 00:20:28;;;;;;;4.57;3.72;;;-0.10;99.90;;;;;;5049490;28;20078;-50
2023/04/06 00:22:54;;;;;;;4.70;3.80;;;-0.10;99.90;;;;;;5041118;28;20488;-48
2023/04/06 00:25:19;;;;;;;4.50;3.90;;;-0.10;99.90;;;;;;5047526;28;20040;-47
2023/04/06 00:27:45;;;;;;;4.65;3.58;;;-0.20;99.90;;;;;;5030452;28;20151;-48
2023/04/06 00:30:11;;;;;;;6.28;4.05;;;-0.20;99.90;;;;;;5052997;28;20025;-49
2023/04/06 00:32:37;;;;;;;5.32;3.88;;;-0.20;99.90;;;;;;5051049;28;20543;-46
2023/04/06 00:35:05;;;;;;;5.63;4.18;;;-0.20;99.90;;;;;;5038452;28;20089;-48
2023/04/06 00:37:32;;;;;;;6.53;4.00;;;-0.20;99.90;;;;;;5035770;28;20032;-48
2023/04/06 00:39:57;;;;;;;5.00;4.15;;;-0.30;99.90;;;;;;5056641;28;20052;-50
2023/04/06 00:42:27;;;;;;;5.70;4.00;;;-0.30;99.90;;;;;;5057844;28;20051;-46
2023/04/06 00:44:54;;;;;;;4.53;3.72;;;-0.30;99.90;;;;;;5050851;28;20039;-46
2023/04/06 00:47:20;;;;;;;5.35;3.70;;;-0.30;99.90;;;;;;5057765;28;20028;-47
2023/04/06 00:49:46;;;;;;;4.95;3.95;;;-0.30;99.90;;;;;;5037707;28;20116;-51
2023/04/06 00:52:12;;;;;;;4.63;3.83;;;-0.30;99.90;;;;;;5057785;28;20017;-48
2023/04/06 00:54:38;;;;;;;6.60;3.85;;;-0.40;99.90;;;;;;5039528;28;20401;-49
2023/04/06 00:57:04;;;;;;;5.25;3.72;;;-0.40;99.90;;;;;;5040488;28;20486;-48
2023/04/06 00:59:30;;;;;;;9.88;4.40;;;-0.40;99.90;;;;;;5058108;28;20149;-50
2023/04/06 01:01:55;;;;;;;6.63;4.70;;;-0.50;99.90;;;;;;5052968;28;20554;-47
2023/04/06 01:04:22;;;;;;;8.05;3.55;;;-0.50;99.90;;;;;;5059106;28;20036;-50
2023/04/06 01:06:49;;;;;;;7.18;4.28;;;-0.50;99.90;;;;;;5058665;28;20032;-50
2023/04/06 01:09:15;;;;;;;5.55;4.95;;;-0.50;99.90;;;;;;5037895;28;20033;-50
2023/04/06 01:11:40;;;;;;;6.15;4.50;;;-0.50;99.90;;;;;;5058522;28;20380;-47
2023/04/06 01:14:06;;;;;;;4.90;4.05;;;-0.50;99.90;;;;;;5049832;28;20024;-48
2023/04/06 01:16:32;;;;;;;5.30;3.72;;;-0.60;99.90;;;;;;5043921;28;20028;-48
2023/04/06 01:18:58;;;;;;;8.27;4.43;;;-0.50;99.90;;;;;;5055316;28;20017;-46
2023/04/06 01:21:25;;;;;;;5.82;4.32;;;-0.60;99.90;;;;;;5049597;28;20108;-48
2023/04/06 01:23:50;;;;;;;7.38;4.78;;;-0.60;99.90;;;;;;5056966;28;20021;-47
2023/04/06 01:26:16;;;;;;;7.18;4.53;;;-0.60;99.90;;;;;;5053993;28;20075;-48
2023/04/06 01:28:42;;;;;;;7.00;4.30;;;-0.60;99.90;;;;;;5037688;28;20029;-46
2023/04/06 01:31:09;;;;;;;4.53;3.95;;;-0.60;99.90;;;;;;5047222;28;20071;-47
2023/04/06 01:33:35;;;;;;;5.35;4.30;;;-0.60;99.90;;;;;;5060790;28;20065;-47
2023/04/06 01:36:01;;;;;;;5.55;4.63;;;-0.60;99.90;;;;;;5029975;28;20030;-46
2023/04/06 01:38:26;;;;;;;5.97;4.97;;;-0.60;99.90;;;;;;5056540;28;20021;-47
2023/04/06 01:40:55;;;;;;;5.30;4.32;;;-0.70;99.90;;;;;;5043447;28;20400;-47
2023/04/06 01:43:21;;;;;;;6.15;4.50;;;-0.60;99.90;;;;;;5038377;28;20028;-46
2023/04/06 01:45:46;;;;;;;8.13;4.72;;;-0.70;99.90;;;;;;5034405;28;20496;-47
2023/04/06 01:48:12;;;;;;;5.35;4.30;;;-0.70;99.90;;;;;;5040858;28;20301;-47
2023/04/06 01:50:38;;;;;;;5.53;4.32;;;-0.60;99.90;;;;;;5043571;28;20551;-48
2023/04/06 01:53:03;;;;;;;6.90;4.20;;;-0.60;99.90;;;;;;5039703;28;20025;-46
2023/04/06 01:55:29;;;;;;;5.95;4.22;;;-0.60;99.90;;;;;;5062401;28;20479;-51
2023/04/06 01:57:55;;;;;;;6.35;4.63;;;-0.60;99.90;;;;;;5057848;28;20036;-48
2023/04/06 02:00:20;;;;;;;8.05;5.15;;;-0.60;99.90;;;;;;5036686;28;20044;-49
2023/04/06 02:02:46;;;;;;;7.35;5.13;;;-0.70;99.90;;;;;;5062249;28;20323;-50
2023/04/06 02:05:11;;;;;;;6.35;4.82;;;-0.70;99.90;;;;;;5053469;28;20079;-47
2023/04/06 02:07:37;;;;;;;5.95;4.63;;;-0.70;99.90;;;;;;5054855;28;20035;-47
2023/04/06 02:10:03;;;;;;;5.90;4.63;;;-0.70;99.90;;;;;;5056073;28;20024;-47
2023/04/06 02:12:29;;;;;;;6.05;4.30;;;-0.80;99.90;;;;;;5033219;28;20025;-48
2023/04/06 02:14:55;;;;;;;6.85;5.72;;;-0.80;99.90;;;;;;5061128;28;20444;-48
2023/04/06 02:17:20;;;;;;;5.38;4.55;;;-0.80;99.90;;;;;;5032906;28;20025;-51
2023/04/06 02:19:46;;;;;;;6.70;4.45;;;-0.80;99.90;;;;;;5052166;28;20043;-49
2023/04/06 02:22:12;;;;;;;6.50;4.50;;;-0.90;99.90;;;;;;5045958;28;20052;-47
2023/04/06 02:24:37;;;;;;;6.75;4.57;;;-0.90;99.90;;;;;;5044743;28;20029;-48
2023/04/06 02:27:03;;;;;;;7.35;5.07;;;-0.90;99.90;;;;;;5058954;28;20032;-48
2023/04/06 02:29:29;;;;;;;5.47;4.57;;;-0.90;99.90;;;;;;5043236;28;20056;-49
2023/04/06 02:31:54;;;;;;;5.78;4.60;;;-1.00;99.90;;;;;;5056441;28;20209;-50
2023/04/06 02:34:20;;;;;;;7.03;4.10;;;-1.00;99.90;;;;;;5029734;28;20403;-47
2023/04/06 02:36:46;;;;;;;6.45;3.80;;;-1.00;99.90;;;;;;5059641;28;20437;-48
2023/04/06 02:39:13;;;;;;;6.20;4.13;;;-1.00;99.90;;;;;;5026589;28;20116;-47
2023/04/06 02:41:39;;;;;;;8.50;4.85;;;-1.10;99.90;;;;;;5042030;28;20369;-48
2023/04/06 02:44:08;;;;;;;7.22;5.07;;;-1.10;99.90;;;;;;5034720;28;20055;-49
2023/04/06 02:46:34;;;;;;;5.95;4.18;;;-1.10;99.90;;;;;;5032011;28;20036;-47
2023/04/06 02:49:00;;;;;;;11.13;4.50;;;-1.10;99.90;;;;;;5047361;28;20026;-49
2023/04/06 02:51:26;;;;;;;5.20;4.15;;;-1.10;99.90;;;;;;5032881;28;20036;-49
2023/04/06 02:53:52;;;;;;;6.15;4.05;;;-1.20;99.90;;;;;;5043574;28;20027;-47
2023/04/06 02:56:18;;;;;;;8.52;4.95;;;-1.20;99.90;;;;;;5055113;28;20500;-47
2023/04/06 02:58:43;;;;;;;5.35;4.20;;;-1.20;99.90;;;;;;5050661;28;20036;-49
2023/04/06 03:01:09;;;;;;;6.90;4.72;;;-1.20;99.90;;;;;;5056891;28;20025;-47
2023/04/06 03:03:35;;;;;;;6.65;4.78;;;-1.20;99.90;;;;;;5051481;28;20408;-48
2023/04/06 03:06:01;;;;;;;6.80;4.15;;;-1.20;99.90;;;;;;5061742;28;20071;-49
2023/04/06 03:08:27;;;;;;;8.77;5.25;;;-1.20;99.90;;;;;;5047482;28;20029;-51
2023/04/06 03:10:52;;;;;;;7.70;5.10;;;-1.20;99.90;;;;;;5053212;28;20150;-51
2023/04/06 03:13:18;;;;;;;5.68;4.53;;;-1.20;99.90;;;;;;5053210;28;20078;-51
2023/04/06 03:15:43;;;;;;;7.32;5.50;;;-1.20;99.90;;;;;;5054863;28;20021;-47
2023/04/06 03:18:09;;;;;;;7.78;5.05;;;-1.20;99.90;;;;;;5051379;28;20048;-48
2023/04/06 03:20:34;;;;;;;9.73;5.35;;;-1.10;99.90;;;;;;5042620;28;20039;-49
2023/04/06 03:23:00;;;;;;;8.48;5.72;;;-1.20;99.90;;;;;;5060901;28;20021;-51
2023/04/06 03:25:26;;;;;;;9.98;5.65;;;-1.10;99.90;;;;;;5037846;28;20230;-50
2023/04/06 03:27:51;;;;;;;6.40;4.32;;;-1.10;99.90;;;;;;5053405;28;20542;-50
2023/04/06 03:30:17;;;;;;;6.28;4.70;;;-1.10;99.90;;;;;;5049461;28;20024;-48
2023/04/06 03:32:44;;;;;;;7.50;5.50;;;-1.10;99.90;;;;;;5050667;28;20037;-47
2023/04/06 03:35:10;;;;;;;8.13;5.68;;;-1.10;99.90;;;;;;5050686;28;20070;-51
2023/04/06 03:37:36;;;;;;;7.80;6.07;;;-1.10;99.90;;;;;;5050551;28;20029;-48
2023/04/06 03:40:02;;;;;;;8.90;5.82;;;-1.10;99.90;;;;;;5034895;28;20032;-52
2023/04/06 03:42:28;;;;;;;7.72;6.32;;;-1.00;99.90;;;;;;5053272;28;20020;-50
2023/04/06 03:44:53;;;;;;;9.73;6.00;;;-1.00;99.90;;;;;;5035011;28;20421;-48
2023/04/06 03:47:19;;;;;;;11.65;6.10;;;-1.00;99.90;;;;;;5052578;28;20071;-46
2023/04/06 03:49:45;;;;;;;7.13;5.65;;;-1.00;99.90;;;;;;5054571;28;20511;-48
2023/04/06 03:52:11;;;;;;;8.75;6.63;;;-1.00;99.90;;;;;;5041652;28;20449;-48
2023/04/06 03:54:36;;;;;;;9.68;6.55;;;-1.00;99.90;;;;;;5054518;28;20031;-49
2023/04/06 03:57:02;;;;;;;8.38;6.05;;;-1.00;99.90;;;;;;5043064;28;20536;-48
2023/04/06 03:59:28;;;;;;;9.15;6.03;;;-1.00;99.90;;;;;;5056327;28;20063;-49
2023/04/06 04:01:54;;;;;;;8.15;5.68;;;-1.00;99.90;;;;;;5057885;28;20033;-48
2023/04/06 04:04:19;;;;;;;10.55;6.35;;;-1.10;99.90;;;;;;5057428;28;20226;-47
2023/04/06 04:06:45;;;;;;;9.63;6.40;;;-1.10;99.90;;;;;;5053453;28;20035;-51
2023/04/06 04:09:10;;;;;;;8.60;6.43;;;-1.10;99.90;;;;;;5059480;28;20475;-48
2023/04/06 04:11:36;;;;;;;10.95;6.68;;;-1.10;99.90;;;;;;5034551;28;20025;-51
2023/04/06 04:14:02;;;;;;;9.98;6.75;;;-1.10;99.90;;;;;;5061152;28;20009;-48
2023/04/06 04:16:27;;;;;;;9.48;6.07;;;-1.10;99.90;;;;;;5054219;28;20021;-49
2023/04/06 04:18:53;;;;;;;7.68;6.53;;;-1.10;99.90;;;;;;5038718;28;20078;-48
2023/04/06 04:21:19;;;;;;;8.43;6.53;;;-1.10;99.90;;;;;;5033883;28;20032;-47
2023/04/06 04:23:44;;;;;;;9.68;5.88;;;-1.10;99.90;;;;;;5053810;28;20162;-51
2023/04/06 04:26:10;;;;;;;8.98;6.13;;;-1.10;99.90;;;;;;5051166;28;20025;-50
2023/04/06 04:28:36;;;;;;;8.15;6.28;;;-1.20;99.90;;;;;;5033978;28;20514;-52
2023/04/06 04:31:01;;;;;;;8.90;6.60;;;-1.20;99.90;;;;;;5055099;28;20494;-52
2023/04/06 04:33:27;;;;;;;9.25;6.57;;;-1.20;99.90;;;;;;5060478;28;20111;-50
2023/04/06 04:35:52;;;;;;;10.65;6.85;;;-1.20;99.90;;;;;;5055874;28;20491;-50
2023/04/06 04:38:18;;;;;;;9.20;6.50;;;-1.20;99.90;;;;;;5061717;28;20032;-47
2023/04/06 04:40:44;;;;;;;9.48;6.97;;;-1.20;99.90;;;;;;5034915;28;20055;-50
2023/04/06 04:43:09;;;;;;;9.48;6.53;;;-1.20;99.90;;;;;;5059981;28;20482;-48
2023/04/06 04:45:35;;;;;;;9.80;6.95;;;-1.20;99.90;;;;;;5060355;28;20124;-50
2023/04/06 04:48:01;;;;;;;9.75;6.78;;;-1.10;99.90;;;;;;5039041;28;20025;-50
2023/04/06 04:50:26;;;;;;;8.63;6.35;;;-1.10;99.90;;;;;;5033811;28;20052;-51
2023/04/06 04:52:52;;;;;;;8.75;6.70;;;-1.10;99.90;;;;;;5057260;28;20049;-48
2023/04/06 04:55:17;;;;;;;11.02;6.53;;;-1.10;99.90;;;;;;5059932;28;20020;-53
2023/04/06 04:57:43;;;;;;;11.27;7.55;;;-1.20;99.90;;;;;;5046488;28;20028;-50
2023/04/06 05:00:09;;;;;;;10.82;6.68;;;-1.10;99.90;;;;;;5048659;28;20021;-53
2023/04/06 05:02:35;;;;;;;10.57;7.50;;;-1.10;99.90;;;;;;5055297;28;20032;-47
2023/04/06 05:05:01;;;;;;;9.75;7.07;;;-1.10;99.90;;;;;;5059004;28;20042;-48
2023/04/06 05:07:26;;;;;;;10.93;8.18;;;-1.10;99.90;;;;;;5060400;28;20035;-48
2023/04/06 05:09:52;;;;;;;10.73;7.57;;;-1.10;99.90;;;;;;5055911;28;20496;-49
2023/04/06 05:12:19;;;;;;;10.63;7.50;;;-1.10;99.90;;;;;;5060133;28;20406;-49
2023/04/06 05:14:45;;;;;;;12.15;6.95;;;-1.10;99.90;;;;;;5057794;28;20088;-48
2023/04/06 05:17:10;;;;;;;10.82;7.82;;;-1.10;99.90;;;;;;5043821;28;20096;-51
2023/04/06 05:19:36;;;;;;;10.77;7.43;;;-1.10;99.90;;;;;;5052691;28;20033;-47
2023/04/06 05:22:02;;;;;;;10.82;7.15;;;-1.10;99.90;;;;;;5038437;28;20101;-51
2023/04/06 05:24:27;;;;;;;9.15;7.22;;;-1.10;99.90;;;;;;5054669;28;20479;-50
2023/04/06 05:26:53;;;;;;;11.15;7.45;;;-1.00;99.90;;;;;;5047443;28;20064;-48
2023/04/06 05:29:20;;;;;;;12.15;8.38;;;-1.00;99.90;;;;;;5055958;28;20497;-50
2023/04/06 05:31:45;;;;;;;11.18;8.18;;;-1.00;99.90;;;;;;5052885;28;20086;-48
2023/04/06 05:34:12;;;;;;;11.00;8.32;;;-1.00;99.90;;;;;;5026351;28;20021;-49
2023/04/06 05:36:38;;;;;;;10.82;8.05;;;-1.00;99.90;;;;;;5043954;28;20036;-47
2023/04/06 05:39:04;;;;;;;11.85;8.07;;;-1.00;99.90;;;;;;5037332;28;20028;-51
2023/04/06 05:41:30;;;;;;;12.63;8.32;;;-1.00;99.90;;;;;;5056725;28;20158;-50
2023/04/06 05:43:55;;;;;;;10.48;7.57;;;-0.90;99.90;;;;;;5059704;28;20056;-50
2023/04/06 05:46:21;;;;;;;12.05;8.18;;;-0.90;99.90;;;;;;5059652;28;20025;-50
2023/04/06 05:48:46;;;;;;;10.95;7.75;;;-0.90;99.90;;;;;;5056888;28;20438;-48
2023/04/06 05:51:12;;;;;;;11.10;8.05;;;-0.90;99.90;;;;;;5037913;28;20033;-47
2023/04/06 05:53:38;;;;;;;13.60;8.93;;;-0.80;99.90;;;;;;5059371;28;20021;-51
2023/04/06 05:56:04;;;;;;;10.93;8.02;;;-0.80;99.90;;;;;;5053975;28;20020;-51
2023/04/06 05:58:30;;;;;;;12.25;8.88;;;-0.70;99.90;;;;;;5059480;28;20025;-51
2023/04/06 06:01:03;;;;;;;11.85;8.52;;;-0.70;99.90;;;;;;5049996;28;20524;-52
2023/04/06 06:03:29;;;;;;;11.80;8.43;;;-0.70;99.90;;;;;;5059357;28;20178;-49
2023/04/06 06:06:00;;;;;;;10.90;7.72;;;-0.60;99.90;;;;;;5046398;28;20037;-50
2023/04/06 06:08:26;;;;;;;13.77;8.80;;;-0.50;99.90;;;;;;5041811;28;20021;-48
2023/04/06 06:10:51;;;;;;;10.77;8.10;;;-0.50;99.90;;;;;;5051911;28;20031;-52
2023/04/06 06:13:17;;;;;;;11.98;8.05;;;-0.40;99.90;;;;;;5059503;28;20031;-47
2023/04/06 06:15:43;;;;;;;11.88;8.18;;;-0.40;99.90;;;;;;5034712;28;20459;-47
2023/04/06 06:18:09;;;;;;;13.32;9.07;;;-0.30;99.90;;;;;;5060148;28;20059;-49
2023/04/06 06:20:34;;;;;;;13.02;9.25;;;-0.20;99.90;;;;;;5050873;28;20048;-49
2023/04/06 06:23:00;;;;;;;13.80;10.10;;;-0.20;99.90;;;;;;5055416;28;20035;-49
2023/04/06 06:25:26;;;;;;;13.23;9.15;;;-0.10;99.90;;;;;;5035367;28;20024;-50
2023/04/06 06:27:51;;;;;;;13.60;9.52;;;0.00;99.90;;;;;;5042973;28;20056;-49
2023/04/06 06:30:17;;;;;;;14.13;9.63;;;0.10;99.90;;;;;;5052312;28;20021;-49
2023/04/06 06:32:43;;;;;;;11.27;9.38;;;0.10;99.90;;;;;;5029401;28;20028;-49
2023/04/06 06:35:08;;;;;;;12.68;9.60;;;0.20;99.90;;;;;;5033878;28;20126;-51
2023/04/06 06:37:34;;;;;;;13.80;8.82;;;0.30;99.90;;;;;;5044687;28;20101;-50
2023/04/06 06:40:00;;;;;;;11.35;9.23;;;0.40;99.90;;;;;;5060355;28;20040;-48
2023/04/06 06:42:26;;;;;;;11.48;8.20;;;0.60;99.90;;;;;;5055055;28;20150;-48
2023/04/06 06:44:51;;;;;;;12.25;9.27;;;0.60;99.90;;;;;;5062627;28;20024;-47
2023/04/06 06:47:17;;;;;;;16.55;9.60;;;0.70;99.90;;;;;;5037204;28;20055;-50
2023/04/06 06:49:43;;;;;;;15.93;9.85;;;0.90;99.90;;;;;;5054779;28;20648;-48
2023/04/06 06:52:09;;;;;;;13.65;9.05;;;0.90;99.90;;;;;;5059605;28;20032;-49
2023/04/06 06:54:34;;;;;;;14.27;10.27;;;1.00;99.90;;;;;;5054042;28;20025;-47
2023/04/06 06:57:00;;;;;;;11.77;8.73;;;1.20;99.90;;;;;;5043710;28;20111;-47
2023/04/06 06:59:26;;;;;;;13.73;10.48;;;1.20;99.90;;;;;;5036880;28;20085;-48
2023/04/06 07:01:51;;;;;;;11.48;9.02;;;1.40;99.90;;;;;;5043605;28;20028;-49
2023/04/06 07:04:17;;;;;;;10.93;9.18;;;1.50;99.90;;;;;;5036511;28;20025;-48
2023/04/06 07:06:43;;;;;;;11.52;8.93;;;1.60;99.90;;;;;;5054917;28;20025;-49
2023/04/06 07:09:09;;;;;;;12.98;8.68;;;1.80;99.90;;;;;;5060024;28;20100;-48
2023/04/06 07:11:35;;;;;;;12.73;9.15;;;2.00;99.90;;;;;;5046991;28;20344;-48
2023/04/06 07:14:00;;;;;;;10.23;8.60;;;2.10;99.90;;;;;;5043455;28;20026;-47
2023/04/06 07:16:26;;;;;;;10.52;8.30;;;2.40;99.90;;;;;;5035615;28;20021;-47
2023/04/06 07:18:52;;;;;;;11.85;7.85;;;2.60;99.90;;;;;;5059197;28;20036;-49
2023/04/06 07:21:17;;;;;;;9.40;8.27;;;2.80;99.90;;;;;;5040113;28;20038;-51
2023/04/06 07:23:43;;;;;;;10.30;7.63;;;3.00;99.90;;;;;;5056205;28;20479;-47
2023/04/06 07:26:09;;;;;;;11.25;7.85;;;3.30;99.90;;;;;;5033674;28;20020;-51
2023/04/06 07:28:34;;;;;;;8.38;7.05;;;3.60;99.90;;;;;;5058109;28;20334;-47
2023/04/06 07:31:00;;;;;;;9.02;6.65;;;3.90;99.90;;;;;;5056572;28;20045;-48
2023/04/06 07:33:29;;;;;;;9.35;7.30;;;4.20;99.90;;;;;;5039894;28;20025;-52
2023/04/06 07:35:56;;;;;;;9.88;6.55;;;4.40;99.90;;;;;;5055991;28;20033;-49
2023/04/06 07:38:22;;;;;;;7.60;6.30;;;4.70;99.90;;;;;;5058037;28;20024;-47
2023/04/06 07:40:47;;;;;;;8.95;6.20;;;5.00;99.90;;;;;;5056062;28;20475;-47
2023/04/06 07:43:13;;;;;;;8.45;6.10;;;5.30;99.90;;;;;;5057985;28;20534;-47
2023/04/06 07:45:38;;;;;;;7.32;5.82;;;5.60;99.90;;;;;;5057434;28;20690;-47
2023/04/06 07:48:04;;;;;;;8.73;5.20;;;5.90;99.90;;;;;;5057548;28;20096;-49
2023/04/06 07:50:30;;;;;;;5.43;4.82;;;6.10;99.90;;;;;;5056949;28;20579;-47
2023/04/06 07:52:55;;;;;;;6.10;4.57;;;6.40;99.90;;;;;;5056047;28;20051;-47
2023/04/06 07:55:21;;;;;;;6.22;4.80;;;6.70;99.90;;;;;;5057991;28;20390;-50
2023/04/06 07:57:47;;;;;;;6.10;4.55;;;6.90;99.90;;;;;;5056578;28;20511;-54
2023/04/06 08:00:13;;;;;;;6.25;4.38;;;7.10;99.90;;;;;;5057128;28;20024;-47
2023/04/06 08:02:39;;;;;;;6.80;4.47;;;7.30;99.90;;;;;;5054996;28;20029;-48
2023/04/06 08:05:05;;;;;;;7.60;5.35;;;7.50;99.90;;;;;;5056879;28;20618;-47
2023/04/06 08:07:31;;;;;;;7.90;4.13;;;7.70;99.90;;;;;;5049450;28;20033;-48
2023/04/06 08:09:57;;;;;;;5.95;3.47;;;8.00;99.90;;;;;;5050184;28;20025;-47
2023/04/06 08:12:22;;;;;;;7.53;4.18;;;8.20;99.20;;;;;;5051335;28;20025;-47
2023/04/06 08:14:48;;;;;;;6.32;4.38;;;8.40;99.90;;;;;;5049921;28;20021;-48
2023/04/06 08:17:14;;;;;;;4.07;3.63;;;8.50;99.60;;;;;;5053679;28;20029;-49
2023/04/06 08:19:41;;;;;;;5.00;3.80;;;8.70;97.10;;;;;;5060737;28;20028;-50
2023/04/06 08:22:07;;;;;;;5.90;4.25;;;8.90;97.00;;;;;;5040543;28;20727;-48
2023/04/06 08:24:33;;;;;;;5.72;3.97;;;9.00;95.40;;;;;;5061602;28;20039;-49
2023/04/06 08:26:59;;;;;;;4.25;3.35;;;9.10;94.70;;;;;;5059447;28;20495;-50
2023/04/06 08:29:24;;;;;;;6.18;3.50;;;9.20;95.30;;;;;;5061021;28;20063;-51
2023/04/06 08:31:50;;;;;;;3.85;3.33;;;9.40;94.00;;;;;;5057335;28;20082;-49
2023/04/06 08:34:15;;;;;;;4.60;3.28;;;9.50;93.60;;;;;;5060319;28;20031;-52
2023/04/06 08:36:41;;;;;;;4.15;3.55;;;9.70;94.20;;;;;;5058132;28;20013;-49
2023/04/06 08:39:07;;;;;;;4.45;3.38;;;9.80;94.00;;;;;;5058774;28;20024;-49
2023/04/06 08:41:34;;;;;;;5.40;3.45;;;10.00;94.30;;;;;;5061458;28;20815;-49
2023/04/06 08:44:01;;;;;;;3.88;2.90;;;10.20;92.70;;;;;;5040238;28;20814;-48
2023/04/06 08:46:31;;;;;;;4.35;3.25;;;10.30;92.00;;;;;;5055731;28;20032;-50
2023/04/06 08:48:59;;;;;;;3.90;2.97;;;10.40;92.00;;;;;;5058480;28;20020;-52
2023/04/06 08:51:26;;;;;;;5.55;3.33;;;10.40;87.50;;;;;;5056416;28;20487;-50
2023/04/06 08:53:57;;;;;;;5.68;3.20;;;10.40;89.20;;;;;;5054720;28;20082;-51
2023/04/06 08:56:27;;;;;;;7.45;3.13;;;10.40;85.60;;;;;;5061870;28;20050;-52
2023/04/06 08:58:53;;;;;;;5.18;3.38;;;10.50;90.00;;;;;;5037971;28;20033;-52
2023/04/06 09:01:25;;;;;;;5.65;3.47;;;10.70;91.10;;;;;;5045979;28;20041;-53
2023/04/06 09:03:55;;;;;;;5.35;3.45;;;10.80;86.50;;;;;;5044512;28;20020;-51
2023/04/06 09:06:21;;;;;;;5.28;3.60;;;10.80;87.40;;;;;;5049006;28;20029;-52
2023/04/06 09:08:47;;;;;;;4.88;3.42;;;10.90;87.70;;;;;;5063255;28;20024;-51
2023/04/06 09:11:12;;;;;;;5.85;3.53;;;11.00;85.90;;;;;;5048984;28;20029;-49
2023/04/06 09:13:53;;;;;;;6.53;3.55;;;11.20;85.00;;;;;;5062565;28;20036;-49
2023/04/06 09:16:19;;;;;;;5.70;3.53;;;11.20;84.10;;;;;;5054093;28;20021;-53
2023/04/06 09:18:46;;;;;;;4.47;3.83;;;11.20;86.60;;;;;;5060114;28;20505;-53
2023/04/06 09:21:12;;;;;;;3.72;2.83;;;11.40;86.50;;;;;;5046825;28;20231;-50
2023/04/06 09:23:38;;;;;;;3.15;2.65;;;11.50;83.10;;;;;;5062363;28;20029;-48
2023/04/06 09:26:15;;;;;;;4.80;2.65;;;11.50;81.60;;;;;;5046133;28;20108;-48
2023/04/06 09:28:45;;;;;;;5.68;3.03;;;11.60;79.80;;;;;;5056615;28;20025;-48
2023/04/06 09:31:12;;;;;;;4.90;3.10;;;11.60;77.50;;;;;;5053841;28;20564;-48
2023/04/06 09:33:44;;;;;;;4.35;2.60;;;11.50;76.40;;;;;;5057486;28;20043;-51
2023/04/06 09:36:10;;;;;;;3.63;2.80;;;11.40;78.10;;;;;;5049201;28;20016;-48
2023/04/06 09:38:39;;;;;;;6.15;3.25;;;11.50;79.50;;;;;;5058890;28;20035;-47
2023/04/06 09:41:05;;;;;;;3.70;2.85;;;11.60;79.40;;;;;;5050420;28;20032;-49
2023/04/06 09:43:31;;;;;;;2.70;2.50;;;11.60;77.90;;;;;;5060045;28;20073;-48
2023/04/06 09:45:58;;;;;;;4.68;2.70;;;11.80;79.20;;;;;;5043666;28;20033;-48
2023/04/06 09:48:25;;;;;;;4.70;2.90;;;11.90;78.80;;;;;;5054627;28;20099;-49
2023/04/06 09:50:59;;;;;;;4.35;2.63;;;11.90;76.00;;;;;;5056417;28;20040;-48
2023/04/06 09:53:27;;;;;;;6.03;3.38;;;12.00;78.70;;;;;;5060042;28;20055;-51
2023/04/06 09:56:00;;;;;;;7.07;2.80;;;11.90;73.70;;;;;;5057786;28;20044;-51
2023/04/06 09:58:26;;;;;;;7.43;3.70;;;12.00;74.20;;;;;;5059532;28;20499;-50
2023/04/06 10:01:05;;;;;;;7.15;3.30;;;12.00;73.70;;;;;;5043903;28;20038;-48
2023/04/06 10:03:41;;;;;;;5.13;3.22;;;11.80;76.30;;;;;;5057812;28;20028;-53
2023/04/06 10:06:11;;;;;;;3.55;2.88;;;11.90;74.60;;;;;;5053155;28;20028;-49
2023/04/06 10:08:40;;;;;;;4.68;3.13;;;11.90;80.00;;;;;;5043879;28;20029;-50
2023/04/06 10:11:06;;;;;;;3.25;2.95;;;12.00;75.70;;;;;;5054172;28;20032;-53
2023/04/06 10:13:34;;;;;;;4.47;3.60;;;12.10;73.40;;;;;;5061663;28;20107;-49
2023/04/06 10:16:03;;;;;;;4.90;3.80;;;12.00;74.10;;;;;;5050980;28;20083;-52
2023/04/06 10:18:29;;;;;;;3.60;3.25;;;11.90;74.10;;;;;;5058956;28;20395;-52
2023/04/06 10:21:01;;;;;;;6.25;4.13;;;11.90;74.00;;;;;;5053567;28;20025;-54
2023/04/06 10:23:34;;;;;;;5.15;3.00;;;11.70;72.10;;;;;;5060175;28;20029;-50
2023/04/06 10:26:02;;;;;;;5.82;4.05;;;11.70;74.90;;;;;;5053526;28;20025;-55
2023/04/06 10:28:35;;;;;;;4.28;3.33;;;11.80;77.30;;;;;;5055958;28;20391;-54
2023/04/06 10:31:27;;;;;;;5.05;3.67;;;11.90;76.40;;;;;;5057356;28;20219;-80
2023/04/06 10:33:57;;;;;;;5.05;3.05;;;12.00;76.60;;;;;;5055041;28;20116;-80
2023/04/06 10:36:28;;;;;;;5.40;3.70;;;11.90;76.20;;;;;;5059561;28;20021;-80
2023/04/06 10:38:57;;;;;;;5.82;3.30;;;12.00;77.70;;;;;;5053996;28;20128;-79
2023/04/06 10:41:23;;;;;;;5.05;3.63;;;12.00;77.40;;;;;;5059454;28;20557;-79
2023/04/06 10:43:56;;;;;;;4.07;3.25;;;12.00;75.30;;;;;;5060845;28;20029;-81
2023/04/06 10:46:30;;;;;;;4.28;3.05;;;12.00;76.00;;;;;;5065703;28;20061;-81
2023/04/06 10:48:57;;;;;;;3.67;3.35;;;12.10;74.90;;;;;;5058921;28;20035;-80
2023/04/06 10:51:29;;;;;;;3.70;3.28;;;12.10;74.50;;;;;;5060114;28;20094;-81
2023/04/06 10:53:55;;;;;;;4.82;3.58;;;12.10;70.90;;;;;;5061136;28;20028;-81
2023/04/06 10:56:27;;;;;;;4.75;3.25;;;12.00;70.10;;;;;;5062479;28;20707;-80
2023/04/06 10:58:55;;;;;;;4.22;3.05;;;12.00;71.20;;;;;;5060815;28;20033;-80
2023/04/06 11:01:22;;;;;;;6.22;3.03;;;12.00;70.70;;;;;;5066293;28;20492;-80
2023/04/06 11:03:55;;;;;;;4.43;3.83;;;12.10;71.20;;;;;;5064237;28;20056;-80
2023/04/06 11:06:26;;;;;;;4.97;3.50;;;12.20;73.00;;;;;;5047040;28;20144;-79
2023/04/06 11:08:53;;;;;;;5.57;3.83;;;12.20;73.80;;;;;;5057541;28;20021;-81
2023/04/06 11:11:20;;;;;;;4.45;4.05;;;12.30;72.40;;;;;;5052880;28;20029;-80
2023/04/06 11:13:51;;;;;;;5.07;4.13;;;12.30;72.70;;;;;;5051822;28;20476;-80
2023/04/06 11:16:22;;;;;;;8.70;5.50;;;12.40;73.70;;;;;;5053680;28;20033;-81
2023/04/06 11:18:57;;;;;;;6.55;5.88;;;12.40;73.30;;;;;;5051555;28;20017;-79
2023/04/06 11:21:33;;;;;;;6.60;3.80;;;12.50;73.30;;;;;;5059665;28;20491;-80
2023/04/06 11:24:10;;;;;;;3.97;3.45;;;12.60;72.70;;;;;;5057300;28;20068;-80
2023/04/06 11:27:04;;;;;;;5.70;3.97;;;12.60;72.10;;;;;;5062436;28;20028;-83
2023/04/06 11:29:30;;;;;;;5.57;4.28;;;12.60;72.00;;;;;;5045328;28;20052;-80
2023/04/06 11:32:01;;;;;;;6.43;5.60;;;12.60;69.80;;;;;;5056729;28;20044;-80
2023/04/06 11:34:30;;;;;;;7.38;5.75;;;12.60;71.80;;;;;;5053650;28;20017;-81
2023/04/06 11:37:01;;;;;;;7.00;5.25;;;12.50;70.00;;;;;;5056937;28;20059;-79
2023/04/06 11:39:28;;;;;;;6.95;5.50;;;12.60;70.30;;;;;;5060820;28;20024;-80
2023/04/06 11:41:57;;;;;;;5.82;4.70;;;12.40;70.80;;;;;;5048667;28;20581;-80
2023/04/06 11:44:34;;;;;;;7.82;6.07;;;12.40;72.80;;;;;;5035614;28;20128;-80
2023/04/06 11:47:01;;;;;;;6.18;5.28;;;12.50;72.10;;;;;;5046367;28;20029;-80
2023/04/06 11:49:30;;;;;;;8.52;5.60;;;12.70;71.60;;;;;;5046411;28;20029;-81
2023/04/06 11:51:56;;;;;;;7.68;6.00;;;12.70;71.00;;;;;;5047633;28;20033;-81
2023/04/06 11:54:40;;;;;;;7.75;5.80;;;12.60;70.70;;;;;;5043753;28;20030;-81
2023/04/06 11:57:07;;;;;;;6.53;5.38;;;12.70;70.40;;;;;;5055066;28;20112;-81
2023/04/06 11:59:33;;;;;;;7.55;5.55;;;12.70;73.40;;;;;;5046651;28;20126;-80
2023/04/06 12:01:59;;;;;;;6.15;5.32;;;12.80;74.60;;;;;;5053892;28;20499;-80
2023/04/06 12:04:25;;;;;;;7.60;5.35;;;12.80;73.20;;;;;;5043369;28;20033;-80
2023/04/06 12:06:51;;;;;;;7.50;5.30;;;13.00;73.60;;;;;;5046025;28;20030;-81
2023/04/06 12:09:17;;;;;;;6.75;5.60;;;13.00;68.70;;;;;;5048338;28;20036;-80
2023/04/06 12:11:43;;;;;;;6.47;5.72;;;12.90;68.10;;;;;;5035743;28;20029;-81
2023/04/06 12:14:09;;;;;;;9.02;5.95;;;12.70;71.30;;;;;;5048678;28;20017;-80
2023/04/06 12:16:35;;;;;;;7.03;5.47;;;12.80;70.80;;;;;;5043382;28;20072;-80
2023/04/06 12:19:01;;;;;;;7.75;6.43;;;12.90;71.00;;;;;;5048303;28;20014;-81
2023/04/06 12:21:28;;;;;;;7.40;6.45;;;13.00;70.90;;;;;;5047005;28;20037;-81
2023/04/06 12:23:54;;;;;;;6.72;5.88;;;13.00;70.70;;;;;;5043986;28;20063;-80
2023/04/06 12:26:20;;;;;;;8.90;5.07;;;13.10;68.00;;;;;;5046258;28;20104;-81
2023/04/06 12:28:46;;;;;;;7.07;5.50;;;13.10;70.00;;;;;;5044150;28;20101;-80
2023/04/06 12:31:19;;;;;;;6.15;5.55;;;13.20;70.10;;;;;;5041038;28;20609;-80
2023/04/06 12:33:49;;;;;;;5.68;5.03;;;13.20;69.50;;;;;;5034467;28;20581;-80
2023/04/06 12:36:18;;;;;;;7.38;5.72;;;13.30;68.00;;;;;;5045164;28;20037;-79
2023/04/06 12:38:45;;;;;;;6.93;4.93;;;13.20;69.00;;;;;;5031930;28;20029;-80
2023/04/06 12:41:11;;;;;;;5.57;4.93;;;13.20;67.80;;;;;;5044963;28;20044;-80
2023/04/06 12:43:38;;;;;;;6.20;5.60;;;13.10;69.70;;;;;;5041394;28;20026;-80